Time;durP1;ratioP1;P1;durP2;ratioP2;P2;SDS_P1;SDS_P2;PMS_P1;PMS_P2;Temp;Humidity;BMP_temperature;BMP_pressure;BME280_temperature;BME280_humidity;BME280_pressure;Samples;Min_cycle;Max_cycle;Signal;HPM_P1;HPM_P2
2021/01/30 00:00:23;;;;;;;3.22;1.45;;;;;;;8.73;48.01;99635.22;5053797;28;20040;-67
2021/01/30 00:02:50;;;;;;;4.35;1.85;;;;;;;8.73;47.89;99636.06;5060392;28;20044;-69
2021/01/30 00:05:19;;;;;;;2.55;1.42;;;;;;;8.74;48.35;99648.69;5053431;28;20407;-67
2021/01/30 00:07:46;;;;;;;2.97;1.50;;;;;;;8.72;48.08;99648.00;5060566;28;20089;-67
2021/01/30 00:10:16;;;;;;;4.28;1.48;;;;;;;8.72;48.14;99650.75;5054072;28;20132;-67
2021/01/30 00:12:45;;;;;;;2.70;1.58;;;;;;;8.71;48.45;99659.91;5059068;28;20043;-67
2021/01/30 00:15:15;;;;;;;3.75;1.58;;;;;;;8.71;48.18;99654.47;5052824;28;20068;-67
2021/01/30 00:17:42;;;;;;;4.50;1.60;;;;;;;8.70;48.52;99660.94;5059909;28;20040;-68
2021/01/30 00:20:13;;;;;;;3.58;1.40;;;;;;;8.71;47.82;99649.00;5053585;28;20049;-68
2021/01/30 00:22:41;;;;;;;6.53;1.70;;;;;;;8.69;47.95;99650.16;5056451;28;20045;-68
2021/01/30 00:25:10;;;;;;;3.55;1.40;;;;;;;8.68;47.88;99649.31;5053328;28;20094;-68
2021/01/30 00:27:37;;;;;;;3.47;1.60;;;;;;;8.66;48.11;99645.84;5051250;28;20415;-68
2021/01/30 00:30:09;;;;;;;3.17;1.50;;;;;;;8.67;47.90;99644.84;5054104;28;20120;-67
2021/01/30 00:32:37;;;;;;;2.92;1.70;;;;;;;8.64;48.54;99661.53;5055144;28;20078;-67
2021/01/30 00:35:06;;;;;;;4.07;1.90;;;;;;;8.63;48.09;99657.94;5054493;28;20531;-68
2021/01/30 00:37:34;;;;;;;4.75;1.80;;;;;;;8.63;48.10;99648.91;5053931;28;20033;-67
2021/01/30 00:40:04;;;;;;;3.67;1.58;;;;;;;8.62;47.84;99658.09;5046108;28;20101;-68
2021/01/30 00:42:33;;;;;;;4.57;1.85;;;;;;;8.59;47.98;99653.78;5056854;28;20040;-68
2021/01/30 00:45:00;;;;;;;3.60;2.05;;;;;;;8.58;47.97;99659.38;5035819;28;20404;-66
2021/01/30 00:47:28;;;;;;;4.72;1.77;;;;;;;8.57;47.93;99660.38;5056260;28;20064;-68
2021/01/30 00:49:55;;;;;;;4.68;1.92;;;;;;;8.54;47.96;99658.84;5035546;28;20119;-68
2021/01/30 00:52:24;;;;;;;4.88;2.25;;;;;;;8.52;48.03;99660.84;5055423;28;20083;-68
2021/01/30 00:55:07;;;;;;;4.10;1.63;;;;;;;8.52;48.13;99663.56;5052368;28;20041;-68
2021/01/30 00:57:34;;;;;;;3.33;1.80;;;;;;;8.51;48.03;99661.84;5054696;28;20063;-68
2021/01/30 01:00:02;;;;;;;4.60;1.88;;;;;;;8.48;48.03;99659.41;5051985;28;20120;-68
2021/01/30 01:02:30;;;;;;;4.07;1.88;;;;;;;8.48;47.98;99664.00;5053283;28;20133;-68
2021/01/30 01:04:58;;;;;;;4.95;2.20;;;;;;;8.44;47.92;99659.88;5053838;28;20126;-68
2021/01/30 01:07:25;;;;;;;6.53;2.50;;;;;;;8.43;47.92;99667.19;5052422;28;20447;-68
2021/01/30 01:09:54;;;;;;;4.18;2.10;;;;;;;8.40;48.07;99667.44;5052958;28;20056;-68
2021/01/30 01:12:22;;;;;;;2.28;1.80;;;;;;;8.40;47.66;99669.28;5055643;28;20041;-68
2021/01/30 01:14:52;;;;;;;5.88;2.17;;;;;;;8.35;47.88;99669.75;5052240;28;20577;-68
2021/01/30 01:17:20;;;;;;;5.97;2.03;;;;;;;8.33;47.86;99668.16;5055123;28;20833;-68
2021/01/30 01:19:49;;;;;;;3.60;2.10;;;;;;;8.30;47.72;99677.53;5052661;28;20037;-68
2021/01/30 01:22:16;;;;;;;5.70;2.60;;;;;;;8.29;47.69;99677.66;5054083;28;20036;-68
2021/01/30 01:24:44;;;;;;;4.22;2.00;;;;;;;8.24;47.80;99676.22;5052744;28;20385;-67
2021/01/30 01:27:11;;;;;;;3.58;2.08;;;;;;;8.21;47.63;99673.81;5053001;28;20403;-67
2021/01/30 01:29:39;;;;;;;4.80;2.33;;;;;;;8.21;47.82;99679.25;5052524;28;20483;-68
2021/01/30 01:32:06;;;;;;;3.38;1.90;;;;;;;8.19;47.97;99683.13;5048411;28;20043;-68
2021/01/30 01:34:34;;;;;;;8.18;4.47;;;;;;;8.16;47.79;99684.25;5053590;28;20710;-68
2021/01/30 01:37:04;;;;;;;7.47;4.85;;;;;;;8.16;47.90;99683.41;5051009;28;20045;-68
2021/01/30 01:39:33;;;;;;;10.68;6.75;;;;;;;8.12;47.59;99692.88;5052547;28;20088;-68
2021/01/30 01:42:10;;;;;;;9.23;6.28;;;;;;;8.11;47.03;99689.28;5053053;28;20041;-68
2021/01/30 01:44:39;;;;;;;11.40;7.03;;;;;;;8.07;47.31;99695.16;5058439;28;20064;-68
2021/01/30 01:47:10;;;;;;;11.55;6.80;;;;;;;8.07;47.55;99706.06;5052719;28;20048;-68
2021/01/30 01:49:40;;;;;;;10.75;6.40;;;;;;;8.03;47.50;99704.63;5056822;28;20033;-68
2021/01/30 01:52:14;;;;;;;9.98;7.03;;;;;;;8.01;47.16;99710.22;5052980;28;20041;-68
2021/01/30 01:54:41;;;;;;;9.43;6.25;;;;;;;7.97;47.25;99713.41;5056447;28;20075;-67
2021/01/30 01:57:13;;;;;;;11.25;7.03;;;;;;;7.97;47.23;99721.56;5052101;28;20422;-68
2021/01/30 01:59:46;;;;;;;13.23;8.00;;;;;;;7.93;46.70;99715.53;5055953;28;20139;-68
2021/01/30 02:02:15;;;;;;;14.27;8.35;;;;;;;7.89;47.24;99722.28;5033960;28;20451;-68
2021/01/30 02:04:47;;;;;;;14.82;8.40;;;;;;;7.86;46.50;99719.84;5055196;28;20044;-68
2021/01/30 02:07:15;;;;;;;11.93;7.70;;;;;;;7.78;46.86;99720.53;5050626;28;20080;-66
2021/01/30 02:09:42;;;;;;;10.80;7.00;;;;;;;7.76;46.81;99716.25;5054562;28;20041;-67
2021/01/30 02:12:12;;;;;;;13.63;7.75;;;;;;;7.72;46.80;99718.41;5052571;28;20064;-68
2021/01/30 02:14:44;;;;;;;11.20;7.35;;;;;;;7.69;46.86;99735.00;5054442;28;20043;-68
2021/01/30 02:17:26;;;;;;;11.23;6.97;;;;;;;7.65;46.47;99738.16;5052613;28;20061;-68
2021/01/30 02:20:26;;;;;;;11.20;6.90;;;;;;;7.58;45.61;99740.56;5038716;28;20053;-68
2021/01/30 02:23:30;;;;;;;10.68;6.80;;;;;;;7.54;46.34;99741.88;5051933;28;20037;-68
2021/01/30 02:26:38;;;;;;;12.20;7.32;;;;;;;7.45;46.03;99738.13;5045831;28;20515;-68
2021/01/30 02:32:39;;;;;;;9.45;5.35;;;;;;;7.38;45.67;99738.81;5047740;28;20120;-68
2021/01/30 02:35:22;;;;;;;9.43;5.43;;;;;;;7.34;46.24;99740.94;5049041;28;20048;-68
2021/01/30 02:37:59;;;;;;;8.52;5.50;;;;;;;7.31;46.13;99740.38;5050186;28;20044;-68
2021/01/30 02:40:35;;;;;;;8.32;5.68;;;;;;;7.28;46.65;99737.94;5054792;28;20033;-68
2021/01/30 02:43:07;;;;;;;9.77;6.50;;;;;;;7.24;46.46;99733.78;5050813;28;20129;-67
2021/01/30 02:45:38;;;;;;;9.50;6.13;;;;;;;7.21;46.21;99743.06;5058117;28;20037;-67
2021/01/30 02:48:09;;;;;;;9.77;5.45;;;;;;;7.19;46.12;99736.91;5046947;28;20151;-67
2021/01/30 02:50:45;;;;;;;10.43;6.38;;;;;;;7.16;46.35;99742.59;5055855;28;20063;-67
2021/01/30 02:53:16;;;;;;;11.32;6.00;;;;;;;7.13;46.04;99747.47;5051887;28;20056;-68
2021/01/30 02:55:44;;;;;;;9.45;5.68;;;;;;;7.08;46.49;99748.72;5057136;28;20052;-68
2021/01/30 02:58:13;;;;;;;8.80;5.60;;;;;;;7.05;46.33;99743.59;5051866;28;20048;-68
2021/01/30 03:00:43;;;;;;;9.18;5.70;;;;;;;7.01;46.39;99742.09;5042765;28;20048;-68
2021/01/30 03:03:11;;;;;;;7.65;5.28;;;;;;;6.96;46.25;99759.81;5050501;28;20041;-68
2021/01/30 03:05:38;;;;;;;8.05;5.45;;;;;;;6.92;46.22;99751.06;5056700;28;20037;-68
2021/01/30 03:08:14;;;;;;;9.82;5.18;;;;;;;6.92;46.14;99759.22;5051854;28;20045;-68
2021/01/30 03:10:50;;;;;;;6.45;4.68;;;;;;;6.89;46.47;99762.22;5056316;28;20037;-68
2021/01/30 03:13:26;;;;;;;6.72;4.82;;;;;;;6.86;46.17;99767.91;5051793;28;20037;-67
2021/01/30 03:15:59;;;;;;;8.15;4.95;;;;;;;6.84;46.14;99763.59;5056387;28;20120;-68
2021/01/30 03:18:30;;;;;;;7.53;5.07;;;;;;;6.80;46.41;99767.59;5050268;28;20067;-67
2021/01/30 03:21:00;;;;;;;9.07;5.78;;;;;;;6.78;46.54;99770.44;5055694;28;20431;-68
2021/01/30 03:23:28;;;;;;;8.85;5.55;;;;;;;6.78;46.30;99775.88;5055115;28;20540;-68
2021/01/30 03:26:01;;;;;;;10.30;5.85;;;;;;;6.77;45.73;99760.56;5054358;28;20481;-68
2021/01/30 03:28:29;;;;;;;8.15;5.35;;;;;;;6.72;46.44;99762.84;5051443;28;20411;-68
2021/01/30 03:30:57;;;;;;;8.75;5.10;;;;;;;6.71;46.21;99766.56;5054431;28;20483;-68
2021/01/30 03:33:24;;;;;;;11.10;5.65;;;;;;;6.69;46.44;99769.41;5051351;28;20383;-67
2021/01/30 03:35:51;;;;;;;10.15;6.40;;;;;;;6.69;46.46;99773.97;5048900;28;20045;-68
2021/01/30 03:38:19;;;;;;;12.43;6.57;;;;;;;6.65;46.42;99767.97;5051638;28;20045;-68
2021/01/30 03:40:46;;;;;;;10.90;6.88;;;;;;;6.63;46.11;99772.66;5054936;28;20037;-67
2021/01/30 03:43:16;;;;;;;11.30;6.05;;;;;;;6.62;46.15;99776.38;5048760;28;20043;-68
2021/01/30 03:45:43;;;;;;;12.95;7.30;;;;;;;6.58;45.99;99772.19;5052460;28;20103;-68
2021/01/30 03:48:11;;;;;;;11.80;7.47;;;;;;;6.57;46.09;99777.78;5045554;28;20492;-68
2021/01/30 03:50:38;;;;;;;11.50;7.55;;;;;;;6.54;45.88;99784.31;5051825;28;20041;-68
2021/01/30 03:53:07;;;;;;;12.25;7.75;;;;;;;6.51;46.06;99775.56;5048682;28;20041;-68
2021/01/30 03:55:34;;;;;;;11.77;7.43;;;;;;;6.46;45.86;99778.69;5051378;28;20037;-67
2021/01/30 03:58:02;;;;;;;12.02;7.25;;;;;;;6.43;45.91;99786.22;5051137;28;20045;-68
2021/01/30 04:00:30;;;;;;;14.57;8.90;;;;;;;6.38;45.57;99777.63;5050769;28;20061;-68
2021/01/30 04:02:58;;;;;;;11.00;7.40;;;;;;;6.33;45.63;99784.34;5048245;28;20395;-68
2021/01/30 04:05:28;;;;;;;13.75;7.88;;;;;;;6.27;45.40;99779.41;5050701;28;20041;-68
2021/01/30 04:07:57;;;;;;;11.52;7.22;;;;;;;6.24;45.66;99786.97;5054950;28;20059;-67
2021/01/30 04:10:28;;;;;;;12.27;7.25;;;;;;;6.19;45.70;99791.91;5054018;28;20120;-67
2021/01/30 04:12:56;;;;;;;11.23;7.15;;;;;;;6.11;45.49;99792.56;5054683;28;20045;-67
2021/01/30 04:15:26;;;;;;;11.00;7.00;;;;;;;6.08;45.54;99792.00;5059856;28;20039;-67
2021/01/30 04:17:58;;;;;;;10.95;7.00;;;;;;;6.03;45.76;99783.34;5055345;28;20044;-68
2021/01/30 04:20:26;;;;;;;9.20;6.00;;;;;;;5.97;45.71;99792.88;5054266;28;20044;-68
2021/01/30 04:22:54;;;;;;;9.05;6.00;;;;;;;5.92;45.86;99795.13;5056133;28;20106;-68
2021/01/30 04:25:23;;;;;;;10.65;6.75;;;;;;;5.88;45.31;99791.81;5053519;28;20046;-67
2021/01/30 04:27:51;;;;;;;9.57;6.05;;;;;;;5.82;45.63;99789.59;5052276;28;20094;-68
2021/01/30 04:30:22;;;;;;;11.25;6.60;;;;;;;5.78;44.80;99798.13;5056200;28;20098;-67
2021/01/30 04:32:49;;;;;;;12.60;7.80;;;;;;;5.67;45.21;99799.03;5056773;28;20420;-67
2021/01/30 04:35:20;;;;;;;11.43;7.53;;;;;;;5.61;44.62;99788.66;5054746;28;20400;-67
2021/01/30 04:37:47;;;;;;;10.82;7.10;;;;;;;5.53;45.20;99796.56;5054336;28;20365;-67
2021/01/30 04:40:22;;;;;;;12.02;7.70;;;;;;;5.47;44.36;99792.53;5054038;28;20440;-67
2021/01/30 04:42:56;;;;;;;14.05;8.55;;;;;;;5.39;44.65;99785.97;5057068;28;20047;-68
2021/01/30 04:45:32;;;;;;;12.40;8.30;;;;;;;5.31;44.46;99786.59;5054649;28;20041;-67
2021/01/30 04:48:06;;;;;;;12.77;8.68;;;;;;;5.23;44.75;99780.94;5055935;28;20048;-68
2021/01/30 04:50:45;;;;;;;14.25;8.45;;;;;;;5.18;44.98;99784.00;5054950;28;20048;-67
2021/01/30 04:53:20;;;;;;;15.60;9.43;;;;;;;5.10;45.27;99777.50;5053777;28;20045;-67
2021/01/30 04:55:58;;;;;;;14.82;8.93;;;;;;;5.06;44.84;99776.00;5053580;28;20776;-67
2021/01/30 04:58:41;;;;;;;12.30;7.35;;;;;;;5.03;45.32;99781.66;5053289;28;20041;-67
2021/01/30 05:01:18;;;;;;;13.65;8.90;;;;;;;4.97;45.46;99796.59;5056299;28;20047;-67
2021/01/30 05:03:58;;;;;;;14.38;7.85;;;;;;;4.97;45.56;99793.00;5054079;28;20043;-67
2021/01/30 05:06:42;;;;;;;14.27;9.05;;;;;;;4.93;44.92;99792.41;5050904;28;20067;-68
2021/01/30 05:09:17;;;;;;;15.52;8.95;;;;;;;4.91;45.74;99799.78;5052384;28;20123;-68
2021/01/30 05:11:53;;;;;;;12.18;8.13;;;;;;;4.90;45.83;99799.91;5055574;28;20115;-67
2021/01/30 05:14:26;;;;;;;12.50;8.77;;;;;;;4.90;45.85;99802.63;5053187;28;20040;-67
2021/01/30 05:17:01;;;;;;;12.77;7.80;;;;;;;4.90;45.81;99808.03;5054412;28;20060;-67
2021/01/30 05:19:34;;;;;;;13.55;9.02;;;;;;;4.88;45.77;99804.59;5052749;28;20037;-67
2021/01/30 05:22:05;;;;;;;13.60;8.97;;;;;;;4.84;45.50;99799.44;5052300;28;20060;-67
2021/01/30 05:24:34;;;;;;;13.20;8.65;;;;;;;4.82;45.79;99795.97;5051524;28;20041;-68
2021/01/30 05:27:21;;;;;;;12.40;8.02;;;;;;;4.83;45.15;99796.84;5048724;28;20057;-68
2021/01/30 05:30:01;;;;;;;12.45;8.30;;;;;;;4.80;45.48;99799.78;5054772;28;20040;-67
2021/01/30 05:32:37;;;;;;;13.88;9.18;;;;;;;4.77;45.11;99802.75;5058158;28;20438;-68
2021/01/30 05:35:10;;;;;;;14.35;9.50;;;;;;;4.69;44.93;99795.19;5052405;28;20045;-67
2021/01/30 05:37:42;;;;;;;13.68;8.95;;;;;;;4.66;45.35;99784.63;5059285;28;20510;-67
2021/01/30 05:40:30;;;;;;;13.37;8.90;;;;;;;4.64;44.67;99786.59;5060233;28;20055;-68
2021/01/30 05:43:12;;;;;;;13.45;8.77;;;;;;;4.60;44.57;99781.53;5051998;28;20025;-67
2021/01/30 05:45:44;;;;;;;12.48;8.98;;;;;;;4.55;45.03;99792.72;5059833;28;20043;-67
2021/01/30 05:48:17;;;;;;;12.68;9.25;;;;;;;4.49;45.02;99784.22;5055703;28;20061;-67
2021/01/30 05:50:51;;;;;;;12.13;8.80;;;;;;;4.46;44.79;99782.59;5061707;28;20045;-67
2021/01/30 05:53:22;;;;;;;14.27;9.13;;;;;;;4.40;44.80;99796.63;5053952;28;20033;-67
2021/01/30 05:55:50;;;;;;;13.07;9.23;;;;;;;4.34;45.19;99795.25;5052433;28;20116;-67
2021/01/30 05:58:20;;;;;;;11.32;8.63;;;;;;;4.30;44.92;99785.63;5052012;28;20077;-67
2021/01/30 06:00:48;;;;;;;12.93;9.07;;;;;;;4.24;44.87;99794.25;5065750;28;20036;-67
2021/01/30 06:03:18;;;;;;;12.73;8.13;;;;;;;4.22;44.79;99796.19;5055415;28;20045;-67
2021/01/30 06:05:48;;;;;;;12.05;8.93;;;;;;;4.17;45.09;99797.53;5060050;28;20036;-67
2021/01/30 06:08:24;;;;;;;11.75;8.50;;;;;;;4.14;44.49;99798.63;5054606;28;20053;-67
2021/01/30 06:10:54;;;;;;;14.38;8.82;;;;;;;4.08;45.21;99799.97;5050759;28;20044;-67
2021/01/30 06:13:23;;;;;;;13.77;9.18;;;;;;;4.04;45.07;99793.06;5053380;28;20558;-67
2021/01/30 06:15:55;;;;;;;14.40;10.05;;;;;;;3.99;44.77;99787.13;5047098;28;20124;-67
2021/01/30 06:18:35;;;;;;;14.93;10.40;;;;;;;3.91;44.10;99791.41;5052691;28;20131;-67
2021/01/30 06:21:10;;;;;;;15.55;9.88;;;;;;;3.91;44.94;99804.94;5058348;28;20051;-67
2021/01/30 06:23:39;;;;;;;14.85;10.02;;;;;;;3.86;45.36;99807.13;5053276;28;20040;-68
2021/01/30 06:26:14;;;;;;;15.13;10.50;;;;;;;3.85;45.17;99798.16;5049952;28;20100;-67
2021/01/30 06:28:46;;;;;;;16.25;10.05;;;;;;;3.83;45.52;99799.22;5056659;28;20044;-67
2021/01/30 06:31:19;;;;;;;15.52;10.02;;;;;;;3.83;45.38;99805.50;5054490;28;20073;-67
2021/01/30 06:33:51;;;;;;;15.02;9.85;;;;;;;3.79;45.25;99805.84;5062687;28;20142;-67
2021/01/30 06:36:22;;;;;;;13.98;9.27;;;;;;;3.79;45.48;99809.41;5057653;28;20040;-68
2021/01/30 06:38:55;;;;;;;16.08;9.80;;;;;;;3.78;45.39;99817.66;5055077;28;20157;-67
2021/01/30 06:41:26;;;;;;;14.95;9.18;;;;;;;3.75;45.73;99824.16;5061511;28;20055;-68
2021/01/30 06:44:05;;;;;;;15.60;9.05;;;;;;;3.79;44.89;99816.66;5055209;28;20032;-68
2021/01/30 06:46:33;;;;;;;13.70;9.23;;;;;;;3.75;45.66;99820.59;5061750;28;20147;-68
2021/01/30 06:49:15;;;;;;;14.93;9.20;;;;;;;3.75;44.52;99816.03;5048864;28;20037;-68
2021/01/30 06:51:43;;;;;;;16.98;9.70;;;;;;;3.73;45.37;99820.69;5065448;28;20059;-68
2021/01/30 06:54:21;;;;;;;16.13;10.32;;;;;;;3.71;44.86;99822.63;5045557;28;20554;-67
2021/01/30 06:57:01;;;;;;;16.35;9.52;;;;;;;3.72;44.92;99824.38;5047255;28;20043;-67
2021/01/30 06:59:32;;;;;;;15.70;9.60;;;;;;;3.67;44.94;99811.22;5050196;28;20044;-67
2021/01/30 07:06:39;;;;;;;15.88;10.32;;;;;;;3.58;45.23;99816.41;5048244;28;20095;-67
2021/01/30 07:09:38;;;;;;;14.15;9.43;;;;;;;3.55;44.63;99836.41;5049726;28;20041;-67
2021/01/30 07:12:23;;;;;;;15.80;10.40;;;;;;;3.52;44.99;99833.94;5048028;28;20468;-67
2021/01/30 07:15:08;;;;;;;14.88;9.73;;;;;;;3.52;44.80;99838.50;5052949;28;20525;-67
2021/01/30 07:17:47;;;;;;;15.95;9.57;;;;;;;3.50;44.90;99846.69;5051767;28;20119;-67
2021/01/30 07:20:27;;;;;;;14.75;9.43;;;;;;;3.48;45.05;99850.47;5046706;28;20037;-67
2021/01/30 07:23:02;;;;;;;14.82;9.13;;;;;;;3.46;45.16;99841.63;5062105;28;20114;-67
2021/01/30 07:25:39;;;;;;;16.58;11.02;;;;;;;3.41;45.03;99836.56;5050917;28;20038;-67
2021/01/30 07:28:20;;;;;;;15.23;9.93;;;;;;;3.40;44.68;99828.56;5048790;28;20045;-67
2021/01/30 07:30:54;;;;;;;15.60;9.75;;;;;;;3.39;45.23;99835.78;5051593;28;20560;-67
2021/01/30 07:33:28;;;;;;;13.35;8.15;;;;;;;3.42;45.48;99830.19;5056800;28;20033;-67
2021/01/30 07:36:02;;;;;;;12.75;7.93;;;;;;;3.39;45.19;99822.28;5053126;28;20044;-67
2021/01/30 07:38:36;;;;;;;13.40;7.97;;;;;;;3.40;44.94;99829.41;5057544;28;20115;-67
2021/01/30 07:41:14;;;;;;;13.13;8.60;;;;;;;3.36;44.70;99836.03;5055299;28;20069;-67
2021/01/30 07:43:50;;;;;;;11.05;7.95;;;;;;;3.37;45.07;99829.63;5055536;28;20378;-67
2021/01/30 07:46:22;;;;;;;11.80;8.00;;;;;;;3.36;45.10;99818.97;5055193;28;20441;-67
2021/01/30 07:48:52;;;;;;;9.73;7.28;;;;;;;3.36;44.94;99825.22;5055874;28;20124;-67
2021/01/30 07:51:22;;;;;;;11.63;7.53;;;;;;;3.34;45.01;99829.88;5056986;28;20053;-67
2021/01/30 07:53:50;;;;;;;9.38;6.65;;;;;;;3.32;45.15;99818.31;5054184;28;20036;-67
2021/01/30 07:56:46;;;;;;;10.82;7.85;;;;;;;3.33;44.41;99828.13;5053727;28;20041;-67
2021/01/30 07:59:22;;;;;;;11.20;6.93;;;;;;;3.30;44.71;99826.53;5054650;28;20049;-67
2021/01/30 08:02:08;;;;;;;10.02;7.20;;;;;;;3.30;44.64;99828.34;5053315;28;20037;-67
2021/01/30 08:05:03;;;;;;;10.73;6.88;;;;;;;3.27;44.41;99824.06;5052700;28;20049;-67
2021/01/30 08:07:41;;;;;;;10.45;7.38;;;;;;;3.29;44.84;99826.63;5051504;28;20059;-66
2021/01/30 08:10:19;;;;;;;9.32;6.55;;;;;;;3.30;44.82;99839.16;5057445;28;20037;-67
2021/01/30 08:12:56;;;;;;;9.57;6.10;;;;;;;3.29;44.58;99838.31;5051580;28;20045;-67
2021/01/30 08:15:38;;;;;;;8.77;6.22;;;;;;;3.27;45.15;99836.72;5058785;28;20530;-67
2021/01/30 08:18:16;;;;;;;8.10;6.03;;;;;;;3.27;44.38;99834.00;5052336;28;20045;-67
2021/01/30 08:20:51;;;;;;;8.57;6.00;;;;;;;3.28;44.88;99822.22;5048616;28;20209;-67
2021/01/30 08:23:34;;;;;;;7.40;5.93;;;;;;;3.27;43.98;99823.19;5049573;28;20037;-67
2021/01/30 08:26:07;;;;;;;9.80;6.57;;;;;;;3.23;44.67;99821.66;5052218;28;20075;-67
2021/01/30 08:28:40;;;;;;;8.00;5.95;;;;;;;3.24;44.46;99826.97;5055241;28;20110;-67
2021/01/30 08:31:07;;;;;;;7.55;5.05;;;;;;;3.22;45.03;99826.22;5057851;28;20047;-67
2021/01/30 08:34:06;;;;;;;7.53;5.40;;;;;;;3.22;43.72;99828.91;5062820;28;20376;-66
2021/01/30 08:36:37;;;;;;;8.05;5.32;;;;;;;3.20;44.55;99822.78;5044573;28;20053;-67
2021/01/30 08:39:19;;;;;;;6.95;4.82;;;;;;;3.24;44.43;99820.69;5058004;28;20123;-67
2021/01/30 08:41:58;;;;;;;6.72;5.10;;;;;;;3.22;43.75;99819.94;5061221;28;20042;-66
2021/01/30 08:44:54;;;;;;;5.78;4.22;;;;;;;3.20;43.91;99827.31;5060135;28;20048;-66
2021/01/30 08:47:26;;;;;;;6.38;4.65;;;;;;;3.19;43.98;99820.19;5056432;28;20065;-66
2021/01/30 08:50:19;;;;;;;;;;;;;;;2.97;44.13;99815.44;5057506;28;20044;-66
2021/01/30 08:52:51;;;;;;;7.07;4.70;;;;;;;3.16;44.22;99817.69;5053782;28;19937;-67
2021/01/30 08:55:44;;;;;;;6.22;4.50;;;;;;;3.19;44.20;99818.34;5054177;28;20091;-67
2021/01/30 08:58:45;;;;;;;6.38;4.70;;;;;;;3.16;43.55;99812.28;5053530;28;20072;-67
2021/01/30 09:01:42;;;;;;;5.57;4.00;;;;;;;3.21;43.83;99805.56;5049665;28;20055;-67
2021/01/30 09:04:47;;;;;;;5.97;4.55;;;;;;;3.20;43.30;99806.56;5057931;28;20119;-66
2021/01/30 09:07:35;;;;;;;5.90;4.35;;;;;;;3.22;43.79;99811.84;5048572;28;20122;-67
2021/01/30 09:10:34;;;;;;;7.10;4.53;;;;;;;3.21;43.82;99816.38;5062288;28;20044;-67
2021/01/30 09:13:10;;;;;;;6.40;4.38;;;;;;;3.22;44.34;99811.84;5034710;28;20061;-67
2021/01/30 09:16:03;;;;;;;5.72;3.90;;;;;;;3.25;43.75;99820.59;5054056;28;20447;-66
2021/01/30 09:18:55;;;;;;;6.53;4.45;;;;;;;3.26;44.01;99819.63;5059772;28;20036;-67
2021/01/30 09:21:31;;;;;;;5.38;3.80;;;;;;;3.28;44.15;99814.13;5048460;28;20491;-66
2021/01/30 09:24:23;;;;;;;5.78;4.38;;;;;;;3.30;43.50;99822.94;5063593;28;20067;-66
2021/01/30 09:27:04;;;;;;;5.80;4.10;;;;;;;3.33;44.17;99815.50;5049535;28;20044;-66
2021/01/30 09:29:35;;;;;;;6.65;4.45;;;;;;;3.33;43.81;99815.50;5052439;28;20048;-67
2021/01/30 09:32:07;;;;;;;6.50;4.65;;;;;;;3.35;44.73;99819.94;5054486;28;20045;-66
2021/01/30 09:34:46;;;;;;;5.70;3.97;;;;;;;3.40;43.69;99810.50;5059537;28;20037;-67
2021/01/30 09:37:38;;;;;;;6.30;4.47;;;;;;;3.41;43.47;99811.38;5059854;28;20064;-67
2021/01/30 09:40:11;;;;;;;5.90;3.92;;;;;;;3.41;44.68;99816.78;5052220;28;20045;-66
2021/01/30 09:42:38;;;;;;;5.68;4.00;;;;;;;3.44;44.74;99813.84;5052593;28;20075;-66
2021/01/30 09:45:10;;;;;;;6.22;4.07;;;;;;;3.47;44.26;99817.19;5045679;28;20045;-66
2021/01/30 09:47:43;;;;;;;6.65;4.57;;;;;;;3.47;44.10;99817.19;5056777;28;20120;-66
2021/01/30 09:50:18;;;;;;;5.00;3.85;;;;;;;3.50;44.40;99810.69;5057906;28;20040;-66
2021/01/30 09:52:51;;;;;;;5.43;4.20;;;;;;;3.52;44.36;99809.59;5060730;28;20392;-66
2021/01/30 09:55:20;;;;;;;5.72;4.00;;;;;;;3.53;44.42;99814.03;5050617;28;20044;-66
2021/01/30 09:57:48;;;;;;;6.82;4.70;;;;;;;3.56;44.59;99816.50;5050839;28;20131;-66
2021/01/30 10:00:28;;;;;;;6.10;4.60;;;;;;;3.57;43.86;99812.81;5051967;28;20039;-66
2021/01/30 10:03:07;;;;;;;5.47;3.95;;;;;;;3.58;42.97;99809.16;5047374;28;20483;-67
2021/01/30 10:05:35;;;;;;;6.13;4.35;;;;;;;3.58;43.81;99816.41;5051845;28;20458;-67
2021/01/30 10:08:26;;;;;;;6.20;4.10;;;;;;;3.58;43.10;99803.75;5053868;28;20054;-66
2021/01/30 10:11:06;;;;;;;5.75;4.10;;;;;;;3.58;43.03;99806.44;5043654;28;20056;-66
2021/01/30 10:13:36;;;;;;;5.70;4.22;;;;;;;3.57;44.06;99803.84;5056508;28;20512;-67
2021/01/30 10:16:08;;;;;;;6.28;4.35;;;;;;;3.55;43.91;99798.53;5054432;28;20053;-67
2021/01/30 10:18:41;;;;;;;6.05;3.80;;;;;;;3.56;43.72;99794.00;5061643;28;20049;-67
2021/01/30 10:21:10;;;;;;;5.13;3.85;;;;;;;3.54;43.98;99795.94;5053420;28;20573;-67
2021/01/30 10:23:41;;;;;;;5.57;4.22;;;;;;;3.55;43.50;99789.56;5052760;28;20045;-66
2021/01/30 10:26:15;;;;;;;5.53;3.97;;;;;;;3.56;43.61;99794.88;5049843;28;20044;-67
2021/01/30 10:28:49;;;;;;;4.60;3.50;;;;;;;3.57;42.96;99780.38;5058891;28;20048;-67
2021/01/30 10:31:21;;;;;;;4.82;3.45;;;;;;;3.58;43.76;99792.91;5050551;28;20094;-69
2021/01/30 10:33:56;;;;;;;5.00;3.70;;;;;;;3.58;43.49;99779.41;5047933;28;20037;-68
2021/01/30 10:36:26;;;;;;;4.72;3.40;;;;;;;3.60;43.78;99776.59;5049523;28;20046;-69
2021/01/30 10:38:55;;;;;;;4.90;3.70;;;;;;;3.60;43.77;99774.75;5048310;28;20071;-68
2021/01/30 10:41:28;;;;;;;4.38;3.30;;;;;;;3.63;42.90;99768.25;5055301;28;20045;-68
2021/01/30 10:44:00;;;;;;;6.00;4.00;;;;;;;3.61;43.28;99771.09;5050646;28;20041;-68
2021/01/30 10:46:39;;;;;;;4.47;3.40;;;;;;;3.59;42.98;99762.22;5052438;28;20106;-68
2021/01/30 10:49:25;;;;;;;5.35;3.75;;;;;;;3.62;42.49;99751.16;5043889;28;20049;-69
2021/01/30 10:52:06;;;;;;;5.28;3.50;;;;;;;3.63;42.50;99754.75;5049231;28;20045;-69
2021/01/30 10:54:34;;;;;;;4.35;3.38;;;;;;;3.61;43.77;99754.03;5046853;28;20048;-68
2021/01/30 10:57:06;;;;;;;4.45;3.53;;;;;;;3.62;43.47;99753.88;5048107;28;20041;-68
2021/01/30 10:59:44;;;;;;;4.72;3.53;;;;;;;3.62;42.72;99763.81;5049582;28;20048;-68
2021/01/30 11:02:38;;;;;;;5.35;3.65;;;;;;;3.63;42.28;99752.03;5045926;28;20048;-68
2021/01/30 11:05:30;;;;;;;5.28;3.88;;;;;;;3.63;42.63;99755.59;5051319;28;20033;-69
2021/01/30 11:08:01;;;;;;;4.05;3.25;;;;;;;3.63;43.08;99755.59;5048388;28;20068;-69
2021/01/30 11:10:40;;;;;;;4.60;3.63;;;;;;;3.63;42.67;99758.31;5050760;28;20395;-69
2021/01/30 11:13:24;;;;;;;4.47;3.65;;;;;;;3.66;43.00;99746.41;5046314;28;20044;-68
2021/01/30 11:16:05;;;;;;;4.47;3.28;;;;;;;3.68;42.77;99752.56;5052901;28;20135;-68
2021/01/30 11:18:36;;;;;;;5.15;3.35;;;;;;;3.67;43.40;99740.03;5063670;28;20055;-68
2021/01/30 11:21:06;;;;;;;4.47;3.67;;;;;;;3.67;43.64;99750.84;5055269;28;20496;-68
2021/01/30 11:26:46;;;;;;;4.57;3.40;;;;;;;3.64;43.75;99733.00;5054608;28;20037;-68
2021/01/30 11:29:37;;;;;;;4.75;3.50;;;;;;;3.68;42.56;99736.34;5047856;28;20785;-68
2021/01/30 11:32:07;;;;;;;4.75;3.45;;;;;;;3.69;43.72;99729.97;5054962;28;20041;-68
2021/01/30 11:34:35;;;;;;;5.20;3.70;;;;;;;3.69;43.46;99721.84;5054841;28;20071;-67
2021/01/30 11:37:04;;;;;;;5.03;3.70;;;;;;;3.68;43.54;99718.28;5054787;28;20123;-68
2021/01/30 11:39:36;;;;;;;4.72;3.58;;;;;;;3.72;43.23;99721.59;5058727;28;20072;-68
2021/01/30 11:42:04;;;;;;;5.20;3.70;;;;;;;3.70;43.43;99716.28;5055209;28;20053;-68
2021/01/30 11:44:31;;;;;;;4.80;3.50;;;;;;;3.73;43.63;99711.63;5053830;28;20045;-69
2021/01/30 11:46:59;;;;;;;5.90;3.58;;;;;;;3.73;43.43;99711.63;5054514;28;20045;-68
2021/01/30 11:49:26;;;;;;;5.10;3.55;;;;;;;3.74;43.40;99708.81;5058221;28;20076;-69
2021/01/30 11:51:55;;;;;;;4.80;3.60;;;;;;;3.77;43.56;99708.59;5055090;28;20124;-68
2021/01/30 11:54:26;;;;;;;5.20;3.30;;;;;;;3.77;43.61;99705.91;5059135;28;20492;-69
2021/01/30 11:56:55;;;;;;;5.20;3.35;;;;;;;3.81;43.37;99703.81;5054279;28;20504;-69
2021/01/30 11:59:22;;;;;;;4.90;3.35;;;;;;;3.82;43.72;99698.28;5057987;28;20033;-69
2021/01/30 12:01:52;;;;;;;4.80;3.50;;;;;;;3.83;43.49;99702.72;5055133;28;20040;-69
2021/01/30 12:04:19;;;;;;;4.72;3.40;;;;;;;3.84;43.24;99699.03;5057190;28;20072;-69
2021/01/30 12:06:46;;;;;;;4.85;3.50;;;;;;;3.87;43.55;99690.66;5054393;28;20383;-68
2021/01/30 12:09:14;;;;;;;4.68;3.38;;;;;;;3.89;43.44;99683.28;5057255;28;20144;-69
2021/01/30 12:11:43;;;;;;;4.55;3.00;;;;;;;3.92;43.39;99682.22;5054605;28;20528;-69
2021/01/30 12:14:12;;;;;;;4.47;2.78;;;;;;;3.94;43.27;99678.41;5056755;28;20106;-69
2021/01/30 12:16:39;;;;;;;5.05;3.33;;;;;;;3.94;43.30;99682.97;5043614;28;20037;-69
2021/01/30 12:19:07;;;;;;;4.53;3.20;;;;;;;3.97;43.41;99683.56;5055555;28;20437;-69
2021/01/30 12:21:34;;;;;;;4.65;3.28;;;;;;;3.99;43.26;99672.63;5054491;28;20115;-69